Time;durP1;ratioP1;P1;durP2;ratioP2;P2;SDS_P1;SDS_P2;PMS_P1;PMS_P2;Temp;Humidity;BMP_temperature;BMP_pressure;BME280_temperature;BME280_humidity;BME280_pressure;Samples;Min_cycle;Max_cycle;Signal;HPM_P1;HPM_P2
2022/11/03 00:09:51;;;;;;;1999.90;999.90;;;10.60;99.90;;;;;;6659272;88;20173;-83
2022/11/03 00:19:52;;;;;;;1999.90;999.90;;;10.50;99.90;;;;;;6663309;88;20166;-83
2022/11/03 00:29:53;;;;;;;1999.90;999.90;;;10.60;99.90;;;;;;6744697;88;20174;-82
2022/11/03 00:39:53;;;;;;;1999.90;999.90;;;10.60;99.90;;;;;;6746891;88;20349;-82
2022/11/03 00:49:54;;;;;;;1999.90;999.90;;;10.70;99.90;;;;;;6744575;88;20213;-83
2022/11/03 00:59:54;;;;;;;1999.90;999.90;;;10.60;99.90;;;;;;6726901;88;20195;-83
2022/11/03 01:09:55;;;;;;;1999.90;999.90;;;10.60;99.90;;;;;;6742774;88;20229;-83
2022/11/03 01:19:55;;;;;;;1999.90;999.90;;;10.60;99.90;;;;;;6742608;88;20214;-83
2022/11/03 01:29:56;;;;;;;1999.90;999.90;;;10.60;99.90;;;;;;6744075;88;20208;-83
2022/11/03 01:39:56;;;;;;;1999.90;999.90;;;10.60;99.90;;;;;;6739076;88;20635;-80
2022/11/03 01:49:59;;;;;;;1999.90;999.90;;;10.60;99.90;;;;;;6730923;88;20951;-81
2022/11/03 02:00:01;;;;;;;1999.90;999.90;;;10.60;99.90;;;;;;6731693;88;20339;-81
2022/11/03 02:10:01;;;;;;;1999.90;999.90;;;10.40;99.90;;;;;;6746498;88;20201;-83
2022/11/03 02:20:09;;;;;;;1999.90;999.90;;;10.30;99.90;;;;;;6747007;88;20189;-83
2022/11/03 02:30:10;;;;;;;1999.90;999.90;;;10.30;99.90;;;;;;6741890;88;20264;-83
2022/11/03 02:40:15;;;;;;;1999.90;999.90;;;10.20;99.90;;;;;;6713674;88;20188;-83
2022/11/03 02:50:16;;;;;;;1999.90;999.90;;;10.10;99.90;;;;;;6668919;88;20627;-82
2022/11/03 03:00:17;;;;;;;1999.90;999.90;;;10.10;99.90;;;;;;6654109;88;20235;-82
2022/11/03 03:10:25;;;;;;;1999.90;999.90;;;10.10;99.90;;;;;;6653699;89;20366;-83
2022/11/03 03:20:32;;;;;;;1999.90;999.90;;;10.10;99.90;;;;;;6654355;88;20688;-83
2022/11/03 03:30:35;;;;;;;1999.90;999.90;;;10.10;99.90;;;;;;6651548;88;20192;-81
2022/11/03 03:40:39;;;;;;;1999.90;999.90;;;10.20;99.90;;;;;;6670478;88;20227;-80
2022/11/03 03:50:41;;;;;;;1999.90;999.90;;;10.40;99.90;;;;;;6653112;88;20216;-82
2022/11/03 04:00:42;;;;;;;1999.90;999.90;;;10.60;99.90;;;;;;6652504;89;20263;-81
2022/11/03 04:31:25;;;;;;;1999.90;999.90;;;10.80;99.90;;;;;;6653851;89;20184;-81
2022/11/03 04:41:30;;;;;;;1999.90;999.90;;;10.80;99.90;;;;;;6669926;88;20207;-82
2022/11/03 04:51:33;;;;;;;1999.90;999.90;;;10.80;99.90;;;;;;6689241;88;20189;-82
2022/11/03 05:01:34;;;;;;;1999.90;999.90;;;10.70;99.90;;;;;;6667135;88;20421;-83
2022/11/03 05:11:37;;;;;;;1999.90;999.90;;;10.60;99.90;;;;;;6718839;88;20190;-83
2022/11/03 05:21:38;;;;;;;1999.90;999.90;;;10.50;99.90;;;;;;6719137;88;21106;-81
2022/11/03 05:31:41;;;;;;;1999.90;999.90;;;10.50;99.90;;;;;;6718187;88;20206;-81
2022/11/03 05:41:41;;;;;;;1999.90;999.90;;;10.40;99.90;;;;;;6661319;88;20894;-82
2022/11/03 05:51:43;;;;;;;1999.90;999.90;;;10.40;99.90;;;;;;6670405;88;20217;-82
2022/11/03 06:01:43;;;;;;;1999.90;999.90;;;10.50;99.90;;;;;;6652061;89;20188;-82
2022/11/03 06:11:44;;;;;;;1999.90;999.90;;;10.60;99.90;;;;;;6738117;88;20223;-82
2022/11/03 06:21:46;;;;;;;1999.90;999.90;;;10.80;99.90;;;;;;6649252;88;20205;-79
2022/11/03 06:42:14;;;;;;;1999.90;999.90;;;10.70;99.90;;;;;;6753966;88;20225;-81
2022/11/03 06:52:48;;;;;;;1999.90;999.90;;;10.70;99.90;;;;;;6732537;88;20197;-82
2022/11/03 07:03:01;;;;;;;1999.90;999.90;;;10.60;99.90;;;;;;6734092;88;20174;-79
2022/11/03 07:43:18;;;;;;;1999.90;999.90;;;10.70;99.90;;;;;;6734686;88;20181;-78
2022/11/03 07:53:24;;;;;;;1999.90;999.90;;;11.20;99.90;;;;;;6712234;88;20254;-77
2022/11/03 08:03:35;;;;;;;1999.90;999.90;;;11.60;99.90;;;;;;6722214;77;20662;-75
2022/11/03 08:13:36;;;;;;;1999.90;999.90;;;11.80;99.90;;;;;;6723807;88;20541;-75
2022/11/03 08:23:36;;;;;;;1999.90;999.90;;;11.90;99.90;;;;;;6659907;89;20267;-75
2022/11/03 08:33:37;;;;;;;1999.90;999.90;;;11.70;99.90;;;;;;6659632;89;20199;-76
2022/11/03 08:43:38;;;;;;;1999.90;999.90;;;11.80;99.90;;;;;;6666180;89;20282;-76
2022/11/03 08:53:39;;;;;;;1999.90;999.90;;;11.90;99.90;;;;;;6664947;89;20605;-76
2022/11/03 09:03:40;;;;;;;1999.90;999.90;;;12.10;99.90;;;;;;6687558;87;20192;-77
2022/11/03 09:13:40;;;;;;;1999.90;999.90;;;12.10;99.90;;;;;;6764341;87;20179;-76
2022/11/03 09:23:41;;;;;;;1999.90;999.90;;;12.20;99.90;;;;;;6762478;87;20188;-75
2022/11/03 09:33:41;;;;;;;1999.90;999.90;;;12.20;99.90;;;;;;6765297;87;20222;-75
2022/11/03 09:43:44;;;;;;;1999.90;999.90;;;12.10;99.90;;;;;;6765045;87;20221;-76
2022/11/03 09:53:44;;;;;;;1999.90;999.90;;;12.20;99.90;;;;;;6766159;87;20202;-75
2022/11/03 10:03:45;;;;;;;1999.90;999.90;;;12.40;99.90;;;;;;6769056;87;20184;-76
2022/11/03 10:13:51;;;;;;;1999.90;999.90;;;12.50;99.90;;;;;;6770205;87;20546;-76
2022/11/03 10:23:52;;;;;;;1999.90;999.90;;;12.60;99.90;;;;;;6761692;87;21205;-75
2022/11/03 10:33:54;;;;;;;1999.90;999.90;;;12.70;99.90;;;;;;6765641;87;20950;-75
2022/11/03 10:44:06;;;;;;;1999.90;999.90;;;12.70;99.90;;;;;;6771483;87;20223;-75
2022/11/03 10:54:15;;;;;;;1999.90;999.90;;;12.70;99.90;;;;;;6764263;87;20297;-75
2022/11/03 11:04:18;;;;;;;1999.90;999.90;;;12.70;99.90;;;;;;6777792;87;20272;-76
2022/11/03 11:14:24;;;;;;;1999.90;999.90;;;12.70;99.90;;;;;;6772546;87;20324;-76
2022/11/03 11:24:43;;;;;;;1999.90;999.90;;;12.60;99.90;;;;;;6762409;87;20207;-77
2022/11/03 11:34:44;;;;;;;1999.90;999.90;;;12.70;99.90;;;;;;6765780;87;20176;-77
2022/11/03 11:44:52;;;;;;;1999.90;999.90;;;12.70;99.90;;;;;;6765779;87;20305;-77
2022/11/03 11:54:52;;;;;;;1999.90;999.90;;;12.60;99.90;;;;;;6763713;87;20202;-76
2022/11/03 12:05:02;;;;;;;1999.90;999.90;;;12.70;99.90;;;;;;6764655;87;20248;-76
2022/11/03 12:15:03;;;;;;;1999.90;999.90;;;12.60;99.90;;;;;;6761163;87;20716;-76
2022/11/03 12:25:07;;;;;;;1999.90;999.90;;;12.60;99.90;;;;;;6762160;87;20175;-77
2022/11/03 12:35:08;;;;;;;1999.90;999.90;;;12.60;99.90;;;;;;6762970;87;20370;-77
2022/11/03 12:45:12;;;;;;;1999.90;999.90;;;12.70;99.90;;;;;;6769211;87;20184;-77
2022/11/03 12:55:12;;;;;;;1999.90;999.90;;;12.60;99.90;;;;;;6763807;87;20218;-77
2022/11/03 13:05:14;;;;;;;1999.90;999.90;;;12.70;99.90;;;;;;6764645;87;20208;-77
2022/11/03 13:15:14;;;;;;;1999.90;999.90;;;12.70;99.90;;;;;;6761297;87;20648;-76
2022/11/03 13:25:15;;;;;;;1999.90;999.90;;;12.70;99.90;;;;;;6763109;87;20221;-77
2022/11/03 13:35:16;;;;;;;1999.90;999.90;;;12.70;99.90;;;;;;6765187;87;20225;-77
2022/11/03 13:45:17;;;;;;;1999.90;999.90;;;12.70;99.90;;;;;;6767036;87;20239;-76
2022/11/03 13:55:17;;;;;;;1999.90;999.90;;;12.70;99.90;;;;;;6766403;87;20175;-77
2022/11/03 14:05:18;;;;;;;1999.90;999.90;;;12.80;99.90;;;;;;6764362;87;20655;-77
2022/11/03 14:15:18;;;;;;;1999.90;999.90;;;12.90;99.90;;;;;;6764867;87;20188;-77
2022/11/03 14:25:19;;;;;;;1999.90;999.90;;;12.90;99.90;;;;;;6766892;87;20201;-77
2022/11/03 14:35:21;;;;;;;1999.90;999.90;;;12.80;99.90;;;;;;6767798;87;20314;-77
2022/11/03 14:45:22;;;;;;;1999.90;999.90;;;12.90;99.90;;;;;;6768924;87;20239;-76
2022/11/03 14:55:22;;;;;;;1999.90;999.90;;;13.00;99.90;;;;;;6765321;87;20201;-77
2022/11/03 15:15:42;;;;;;;1999.90;999.90;;;12.40;99.90;;;;;;6773375;87;20172;-74
2022/11/03 15:25:43;;;;;;;1999.90;999.90;;;12.20;99.90;;;;;;6771243;87;20223;-75
2022/11/03 15:35:44;;;;;;;1999.90;999.90;;;11.90;99.90;;;;;;6760826;87;20311;-75
2022/11/03 15:45:44;;;;;;;1999.90;999.90;;;11.80;99.90;;;;;;6774261;87;20722;-76
2022/11/03 15:55:45;;;;;;;1999.90;999.90;;;11.80;99.90;;;;;;6760243;87;20676;-75
2022/11/03 16:05:45;;;;;;;1999.90;999.90;;;12.00;99.90;;;;;;6766129;87;20283;-76
2022/11/03 16:15:46;;;;;;;1999.90;999.90;;;12.00;99.90;;;;;;6762306;87;20222;-76
2022/11/03 16:25:46;;;;;;;1999.90;999.90;;;12.10;99.90;;;;;;6760532;87;20370;-75
2022/11/03 16:35:47;;;;;;;1999.90;999.90;;;12.20;99.90;;;;;;6761672;87;20619;-75
2022/11/03 16:45:47;;;;;;;1999.90;999.90;;;12.20;99.90;;;;;;6768657;87;20271;-75
2022/11/03 16:55:48;;;;;;;1999.90;999.90;;;12.30;99.90;;;;;;6762676;87;20267;-76
2022/11/03 17:05:49;;;;;;;1999.90;999.90;;;12.30;99.90;;;;;;6781159;87;20156;-78
2022/11/03 17:15:49;;;;;;;1999.90;999.90;;;12.40;99.90;;;;;;6771129;87;20188;-77
2022/11/03 17:25:50;;;;;;;1999.90;999.90;;;12.40;99.90;;;;;;6769771;87;20796;-78
2022/11/03 17:35:50;;;;;;;1999.90;999.90;;;12.40;99.90;;;;;;6778039;87;20651;-77
2022/11/03 17:45:52;;;;;;;1999.90;999.90;;;12.40;99.90;;;;;;6770301;87;20328;-76
2022/11/03 17:55:53;;;;;;;1999.90;999.90;;;12.40;99.90;;;;;;6769356;87;20184;-77
2022/11/03 18:05:54;;;;;;;1999.90;999.90;;;12.40;99.90;;;;;;6765123;87;20224;-78
2022/11/03 18:16:08;;;;;;;1999.90;999.90;;;12.50;99.90;;;;;;6773302;87;20184;-78
2022/11/03 18:26:16;;;;;;;1999.90;999.90;;;12.60;99.90;;;;;;6771223;87;20179;-77
2022/11/03 18:36:17;;;;;;;1999.90;999.90;;;12.60;99.90;;;;;;6775286;87;20704;-77
2022/11/03 18:46:19;;;;;;;1999.90;999.90;;;12.60;99.90;;;;;;6768611;87;20656;-77
2022/11/03 18:56:20;;;;;;;1999.90;999.90;;;12.50;99.90;;;;;;6769055;87;20217;-78
2022/11/03 19:06:21;;;;;;;1999.90;999.90;;;12.30;99.90;;;;;;6771282;87;20195;-76
2022/11/03 19:16:23;;;;;;;1999.90;999.90;;;12.20;99.90;;;;;;6778764;87;20642;-76
2022/11/03 19:26:29;;;;;;;1999.90;999.90;;;11.90;99.90;;;;;;6782190;87;20183;-77
2022/11/03 19:36:30;;;;;;;;;;;11.90;99.90;;;;;;6778752;87;20350;-77
2022/11/03 19:46:30;;;;;;;1999.90;999.90;;;11.70;99.90;;;;;;6765924;87;20106;-78
2022/11/03 19:56:31;;;;;;;1999.90;999.90;;;11.60;99.90;;;;;;6771157;87;20209;-77
2022/11/03 20:06:33;;;;;;;1999.90;999.90;;;11.50;99.90;;;;;;6768782;87;20276;-77
2022/11/03 20:17:01;;;;;;;1999.90;999.90;;;11.40;99.90;;;;;;6770440;76;20196;-77
2022/11/03 20:27:01;;;;;;;1999.90;999.90;;;11.40;99.90;;;;;;6756570;88;21166;-78
2022/11/03 20:37:02;;;;;;;1999.90;999.90;;;11.40;99.90;;;;;;6739531;88;20303;-78
2022/11/03 20:47:09;;;;;;;1999.90;999.90;;;11.30;99.90;;;;;;6739042;88;20188;-78
2022/11/03 20:57:11;;;;;;;1999.90;999.90;;;11.30;99.90;;;;;;6737384;88;20170;-79
2022/11/03 21:07:12;;;;;;;1999.90;999.90;;;11.30;99.90;;;;;;6742436;88;20196;-79
2022/11/03 21:27:32;;;;;;;1999.90;999.90;;;11.30;99.90;;;;;;6742670;88;20185;-79
2022/11/03 21:37:33;;;;;;;1999.90;999.90;;;11.30;99.90;;;;;;6742800;88;20311;-79
2022/11/03 21:47:33;;;;;;;1999.90;999.90;;;11.40;99.90;;;;;;6745133;88;20189;-80
2022/11/03 21:57:34;;;;;;;1999.90;999.90;;;11.40;99.90;;;;;;6755497;88;20685;-78
2022/11/03 22:07:34;;;;;;;1999.90;999.90;;;11.40;99.90;;;;;;6766162;88;20666;-79
2022/11/03 22:17:35;;;;;;;1999.90;999.90;;;11.40;99.90;;;;;;6750612;88;20188;-79
2022/11/03 22:27:35;;;;;;;1999.90;999.90;;;11.50;99.90;;;;;;6747987;88;20370;-79
2022/11/03 22:37:36;;;;;;;1999.90;999.90;;;11.50;99.90;;;;;;6741373;88;20668;-78
2022/11/03 22:47:36;;;;;;;1999.90;999.90;;;11.50;99.90;;;;;;6750765;88;20657;-78
2022/11/03 22:57:37;;;;;;;1999.90;999.90;;;11.60;99.90;;;;;;6739080;88;20217;-77
2022/11/03 23:07:37;;;;;;;1999.90;999.90;;;11.50;99.90;;;;;;6743072;88;20198;-78
2022/11/03 23:27:57;;;;;;;1999.90;999.90;;;10.80;99.90;;;;;;6744082;88;20180;-78
2022/11/03 23:37:58;;;;;;;1999.90;999.90;;;10.70;99.90;;;;;;6748699;88;20212;-77
2022/11/03 23:58:17;;;;;;;1999.90;999.90;;;10.50;99.90;;;;;;6749857;88;20498;-78
